sensor_id;sensor_type;location;lat;lon;timestamp;temperature;humidity
6256;DHT22;3161;48.794;9.784;2023-04-06T00:02:23;2.60;99.90
6256;DHT22;3161;48.794;9.784;2023-04-06T00:04:51;2.50;99.90
6256;DHT22;3161;48.794;9.784;2023-04-06T00:07:18;2.60;99.90
6256;DHT22;3161;48.794;9.784;2023-04-06T00:09:46;2.50;99.90
6256;DHT22;3161;48.794;9.784;2023-04-06T00:12:13;2.50;99.90
6256;DHT22;3161;48.794;9.784;2023-04-06T00:14:41;2.50;99.90
6256;DHT22;3161;48.794;9.784;2023-04-06T00:17:08;2.50;99.90
6256;DHT22;3161;48.794;9.784;2023-04-06T00:19:36;2.50;99.90
6256;DHT22;3161;48.794;9.784;2023-04-06T00:22:04;2.40;99.90
6256;DHT22;3161;48.794;9.784;2023-04-06T00:24:31;2.40;99.90
6256;DHT22;3161;48.794;9.784;2023-04-06T00:26:58;2.40;99.90
6256;DHT22;3161;48.794;9.784;2023-04-06T00:29:26;2.40;99.90
6256;DHT22;3161;48.794;9.784;2023-04-06T00:31:53;2.40;99.90
6256;DHT22;3161;48.794;9.784;2023-04-06T00:34:21;2.40;99.90
6256;DHT22;3161;48.794;9.784;2023-04-06T00:36:49;2.40;99.90
6256;DHT22;3161;48.794;9.784;2023-04-06T00:39:16;2.40;99.90
6256;DHT22;3161;48.794;9.784;2023-04-06T00:41:49;2.40;99.90
6256;DHT22;3161;48.794;9.784;2023-04-06T00:44:18;2.30;99.90
6256;DHT22;3161;48.794;9.784;2023-04-06T00:46:46;2.30;99.90
6256;DHT22;3161;48.794;9.784;2023-04-06T00:49:14;2.20;99.90
6256;DHT22;3161;48.794;9.784;2023-04-06T00:51:41;2.30;99.90
6256;DHT22;3161;48.794;9.784;2023-04-06T00:54:09;2.30;99.90
6256;DHT22;3161;48.794;9.784;2023-04-06T00:56:37;2.30;99.90
6256;DHT22;3161;48.794;9.784;2023-04-06T00:59:04;2.30;99.90
6256;DHT22;3161;48.794;9.784;2023-04-06T01:01:32;2.30;99.90
6256;DHT22;3161;48.794;9.784;2023-04-06T01:03:59;2.30;99.90
6256;DHT22;3161;48.794;9.784;2023-04-06T01:06:29;2.20;99.90
6256;DHT22;3161;48.794;9.784;2023-04-06T01:08:56;2.20;99.90
6256;DHT22;3161;48.794;9.784;2023-04-06T01:11:24;2.20;99.90
6256;DHT22;3161;48.794;9.784;2023-04-06T01:13:53;2.20;99.90
6256;DHT22;3161;48.794;9.784;2023-04-06T01:16:21;2.10;99.90
6256;DHT22;3161;48.794;9.784;2023-04-06T01:18:48;2.10;99.90
6256;DHT22;3161;48.794;9.784;2023-04-06T01:21:17;2.10;99.90
6256;DHT22;3161;48.794;9.784;2023-04-06T01:23:45;2.00;99.90
6256;DHT22;3161;48.794;9.784;2023-04-06T01:26:13;2.00;99.90
6256;DHT22;3161;48.794;9.784;2023-04-06T01:28:41;2.00;99.90
6256;DHT22;3161;48.794;9.784;2023-04-06T01:31:11;2.00;99.90
6256;DHT22;3161;48.794;9.784;2023-04-06T01:33:38;2.00;99.90
6256;DHT22;3161;48.794;9.784;2023-04-06T01:36:06;1.90;99.90
6256;DHT22;3161;48.794;9.784;2023-04-06T01:38:34;1.90;99.90
6256;DHT22;3161;48.794;9.784;2023-04-06T01:41:02;1.90;99.90
6256;DHT22;3161;48.794;9.784;2023-04-06T01:43:30;1.90;99.90
6256;DHT22;3161;48.794;9.784;2023-04-06T01:45:57;1.80;99.90
6256;DHT22;3161;48.794;9.784;2023-04-06T01:48:26;1.80;99.90
6256;DHT22;3161;48.794;9.784;2023-04-06T01:50:54;1.80;99.90
6256;DHT22;3161;48.794;9.784;2023-04-06T01:53:22;1.80;99.90
6256;DHT22;3161;48.794;9.784;2023-04-06T01:55:49;1.80;99.90
6256;DHT22;3161;48.794;9.784;2023-04-06T01:58:17;1.70;99.90
6256;DHT22;3161;48.794;9.784;2023-04-06T02:00:44;1.70;99.90
6256;DHT22;3161;48.794;9.784;2023-04-06T02:03:12;1.70;99.90
6256;DHT22;3161;48.794;9.784;2023-04-06T02:05:41;1.70;99.90
6256;DHT22;3161;48.794;9.784;2023-04-06T02:08:08;1.70;99.90
6256;DHT22;3161;48.794;9.784;2023-04-06T02:10:36;1.60;99.90
6256;DHT22;3161;48.794;9.784;2023-04-06T02:13:03;1.60;99.90
6256;DHT22;3161;48.794;9.784;2023-04-06T02:15:31;1.60;99.90
6256;DHT22;3161;48.794;9.784;2023-04-06T02:17:59;1.60;99.90
6256;DHT22;3161;48.794;9.784;2023-04-06T02:20:27;1.60;99.90
6256;DHT22;3161;48.794;9.784;2023-04-06T02:22:56;1.60;99.90
6256;DHT22;3161;48.794;9.784;2023-04-06T02:25:23;1.60;99.90
6256;DHT22;3161;48.794;9.784;2023-04-06T02:27:51;1.60;99.90
6256;DHT22;3161;48.794;9.784;2023-04-06T02:30:19;1.50;99.90
6256;DHT22;3161;48.794;9.784;2023-04-06T02:32:46;1.50;99.90
6256;DHT22;3161;48.794;9.784;2023-04-06T02:35:14;1.50;99.90
6256;DHT22;3161;48.794;9.784;2023-04-06T02:37:42;1.60;99.90
6256;DHT22;3161;48.794;9.784;2023-04-06T02:40:10;1.50;99.90
6256;DHT22;3161;48.794;9.784;2023-04-06T02:42:37;1.50;99.90
6256;DHT22;3161;48.794;9.784;2023-04-06T02:45:06;1.50;99.90
6256;DHT22;3161;48.794;9.784;2023-04-06T02:47:34;1.50;99.90
6256;DHT22;3161;48.794;9.784;2023-04-06T02:50:01;1.50;99.90
6256;DHT22;3161;48.794;9.784;2023-04-06T02:52:29;1.50;99.90
6256;DHT22;3161;48.794;9.784;2023-04-06T02:54:56;1.50;99.90
6256;DHT22;3161;48.794;9.784;2023-04-06T02:57:24;1.50;99.90
6256;DHT22;3161;48.794;9.784;2023-04-06T02:59:52;1.50;99.90
6256;DHT22;3161;48.794;9.784;2023-04-06T03:02:19;1.50;99.90
6256;DHT22;3161;48.794;9.784;2023-04-06T03:04:47;1.50;99.90
6256;DHT22;3161;48.794;9.784;2023-04-06T03:07:15;1.50;99.90
6256;DHT22;3161;48.794;9.784;2023-04-06T03:09:42;1.50;99.90
6256;DHT22;3161;48.794;9.784;2023-04-06T03:12:10;1.40;99.90
6256;DHT22;3161;48.794;9.784;2023-04-06T03:14:38;1.40;99.90
6256;DHT22;3161;48.794;9.784;2023-04-06T03:17:05;1.40;99.90
6256;DHT22;3161;48.794;9.784;2023-04-06T03:19:33;1.30;99.90
6256;DHT22;3161;48.794;9.784;2023-04-06T03:22:00;1.30;99.90
6256;DHT22;3161;48.794;9.784;2023-04-06T03:24:28;1.30;99.90
6256;DHT22;3161;48.794;9.784;2023-04-06T03:26:56;1.30;99.90
6256;DHT22;3161;48.794;9.784;2023-04-06T03:29:23;1.30;99.90
6256;DHT22;3161;48.794;9.784;2023-04-06T03:31:51;1.30;99.90
6256;DHT22;3161;48.794;9.784;2023-04-06T03:34:18;1.30;99.90
6256;DHT22;3161;48.794;9.784;2023-04-06T03:36:46;1.30;99.90
6256;DHT22;3161;48.794;9.784;2023-04-06T03:39:14;1.20;99.90
6256;DHT22;3161;48.794;9.784;2023-04-06T03:41:41;1.20;99.90
6256;DHT22;3161;48.794;9.784;2023-04-06T03:44:11;1.20;99.90
6256;DHT22;3161;48.794;9.784;2023-04-06T03:46:38;1.20;99.90
6256;DHT22;3161;48.794;9.784;2023-04-06T03:49:06;1.10;99.90
6256;DHT22;3161;48.794;9.784;2023-04-06T03:51:34;1.20;99.90
6256;DHT22;3161;48.794;9.784;2023-04-06T03:54:01;1.10;99.90
6256;DHT22;3161;48.794;9.784;2023-04-06T03:56:29;1.10;99.90
6256;DHT22;3161;48.794;9.784;2023-04-06T03:58:57;1.00;99.90
6256;DHT22;3161;48.794;9.784;2023-04-06T04:01:24;1.00;99.90
6256;DHT22;3161;48.794;9.784;2023-04-06T04:03:52;0.90;99.90
6256;DHT22;3161;48.794;9.784;2023-04-06T04:06:20;0.90;99.90
6256;DHT22;3161;48.794;9.784;2023-04-06T04:08:47;0.90;99.90
6256;DHT22;3161;48.794;9.784;2023-04-06T04:11:15;0.80;99.90
6256;DHT22;3161;48.794;9.784;2023-04-06T04:13:42;0.80;99.90
6256;DHT22;3161;48.794;9.784;2023-04-06T04:16:10;0.80;99.90
6256;DHT22;3161;48.794;9.784;2023-04-06T04:18:38;0.80;99.90
6256;DHT22;3161;48.794;9.784;2023-04-06T04:21:05;0.70;99.90
6256;DHT22;3161;48.794;9.784;2023-04-06T04:23:33;0.80;99.90
6256;DHT22;3161;48.794;9.784;2023-04-06T04:26:00;0.70;99.90
6256;DHT22;3161;48.794;9.784;2023-04-06T04:28:28;0.70;99.90
6256;DHT22;3161;48.794;9.784;2023-04-06T04:30:56;0.70;99.90
6256;DHT22;3161;48.794;9.784;2023-04-06T04:33:23;0.70;99.90
6256;DHT22;3161;48.794;9.784;2023-04-06T04:35:51;0.70;99.90
6256;DHT22;3161;48.794;9.784;2023-04-06T04:38:19;0.60;99.90
6256;DHT22;3161;48.794;9.784;2023-04-06T04:40:47;0.60;99.90
6256;DHT22;3161;48.794;9.784;2023-04-06T04:43:14;0.60;99.90
6256;DHT22;3161;48.794;9.784;2023-04-06T04:45:42;0.60;99.90
6256;DHT22;3161;48.794;9.784;2023-04-06T04:48:09;0.60;99.90
6256;DHT22;3161;48.794;9.784;2023-04-06T04:50:37;0.60;99.90
6256;DHT22;3161;48.794;9.784;2023-04-06T04:53:04;0.50;99.90
6256;DHT22;3161;48.794;9.784;2023-04-06T04:55:32;0.50;99.90
6256;DHT22;3161;48.794;9.784;2023-04-06T04:58:00;0.50;99.90
6256;DHT22;3161;48.794;9.784;2023-04-06T05:00:28;0.60;99.90
6256;DHT22;3161;48.794;9.784;2023-04-06T05:02:57;0.60;99.90
6256;DHT22;3161;48.794;9.784;2023-04-06T05:05:24;0.60;99.90
6256;DHT22;3161;48.794;9.784;2023-04-06T05:07:52;0.60;99.90
6256;DHT22;3161;48.794;9.784;2023-04-06T05:10:19;0.60;99.90
6256;DHT22;3161;48.794;9.784;2023-04-06T05:12:47;0.60;99.90
6256;DHT22;3161;48.794;9.784;2023-04-06T05:15:14;0.70;99.90
6256;DHT22;3161;48.794;9.784;2023-04-06T05:17:42;0.60;99.90
6256;DHT22;3161;48.794;9.784;2023-04-06T05:20:10;0.60;99.90
6256;DHT22;3161;48.794;9.784;2023-04-06T05:22:38;0.70;99.90
6256;DHT22;3161;48.794;9.784;2023-04-06T05:25:06;0.70;99.90
6256;DHT22;3161;48.794;9.784;2023-04-06T05:27:34;0.70;99.90
6256;DHT22;3161;48.794;9.784;2023-04-06T05:30:02;0.70;99.90
6256;DHT22;3161;48.794;9.784;2023-04-06T05:32:30;0.70;99.90
6256;DHT22;3161;48.794;9.784;2023-04-06T05:34:57;0.70;99.90
6256;DHT22;3161;48.794;9.784;2023-04-06T05:37:25;0.80;99.90
6256;DHT22;3161;48.794;9.784;2023-04-06T05:39:53;0.80;99.90
6256;DHT22;3161;48.794;9.784;2023-04-06T05:42:21;0.90;99.90
6256;DHT22;3161;48.794;9.784;2023-04-06T05:44:49;0.90;99.90
6256;DHT22;3161;48.794;9.784;2023-04-06T05:47:16;1.00;99.90
6256;DHT22;3161;48.794;9.784;2023-04-06T05:49:44;1.00;99.90
6256;DHT22;3161;48.794;9.784;2023-04-06T05:52:12;1.10;99.90
6256;DHT22;3161;48.794;9.784;2023-04-06T05:54:40;1.10;99.90
6256;DHT22;3161;48.794;9.784;2023-04-06T05:57:07;1.20;99.90
6256;DHT22;3161;48.794;9.784;2023-04-06T05:59:35;1.30;99.90
6256;DHT22;3161;48.794;9.784;2023-04-06T06:02:02;1.30;99.90
6256;DHT22;3161;48.794;9.784;2023-04-06T06:04:31;1.40;99.90
6256;DHT22;3161;48.794;9.784;2023-04-06T06:06:58;1.50;99.90
6256;DHT22;3161;48.794;9.784;2023-04-06T06:09:26;1.60;99.90
6256;DHT22;3161;48.794;9.784;2023-04-06T06:11:54;1.60;99.90
6256;DHT22;3161;48.794;9.784;2023-04-06T06:14:22;1.70;99.90
6256;DHT22;3161;48.794;9.784;2023-04-06T06:16:49;1.80;99.90
6256;DHT22;3161;48.794;9.784;2023-04-06T06:19:17;1.90;99.90
6256;DHT22;3161;48.794;9.784;2023-04-06T06:21:45;2.00;99.90
6256;DHT22;3161;48.794;9.784;2023-04-06T06:24:18;2.10;99.90
6256;DHT22;3161;48.794;9.784;2023-04-06T06:26:45;2.30;99.90
6256;DHT22;3161;48.794;9.784;2023-04-06T06:29:15;2.40;99.90
6256;DHT22;3161;48.794;9.784;2023-04-06T06:31:42;2.50;99.90
6256;DHT22;3161;48.794;9.784;2023-04-06T06:34:10;2.60;99.90
6256;DHT22;3161;48.794;9.784;2023-04-06T06:36:39;2.70;99.90
6256;DHT22;3161;48.794;9.784;2023-04-06T06:39:07;2.80;99.90
6256;DHT22;3161;48.794;9.784;2023-04-06T06:41:35;3.00;99.90
6256;DHT22;3161;48.794;9.784;2023-04-06T06:44:02;3.10;99.90
6256;DHT22;3161;48.794;9.784;2023-04-06T06:46:30;3.20;99.90
6256;DHT22;3161;48.794;9.784;2023-04-06T06:48:59;3.40;99.90
6256;DHT22;3161;48.794;9.784;2023-04-06T06:51:26;3.60;99.90
6256;DHT22;3161;48.794;9.784;2023-04-06T06:53:54;3.70;99.90
6256;DHT22;3161;48.794;9.784;2023-04-06T06:56:21;3.90;99.90
6256;DHT22;3161;48.794;9.784;2023-04-06T06:58:49;4.10;99.90
6256;DHT22;3161;48.794;9.784;2023-04-06T07:01:17;4.30;99.90
6256;DHT22;3161;48.794;9.784;2023-04-06T07:03:45;4.40;99.90
6256;DHT22;3161;48.794;9.784;2023-04-06T07:06:13;4.60;99.90
6256;DHT22;3161;48.794;9.784;2023-04-06T07:08:40;4.80;99.90
6256;DHT22;3161;48.794;9.784;2023-04-06T07:11:08;5.00;99.90
6256;DHT22;3161;48.794;9.784;2023-04-06T07:13:35;5.20;99.90
6256;DHT22;3161;48.794;9.784;2023-04-06T07:16:03;5.50;99.90
6256;DHT22;3161;48.794;9.784;2023-04-06T07:18:31;5.70;99.90
6256;DHT22;3161;48.794;9.784;2023-04-06T07:20:58;6.00;99.90
6256;DHT22;3161;48.794;9.784;2023-04-06T07:23:26;6.30;99.90
6256;DHT22;3161;48.794;9.784;2023-04-06T07:25:54;6.60;99.90
6256;DHT22;3161;48.794;9.784;2023-04-06T07:28:21;7.10;99.10
6256;DHT22;3161;48.794;9.784;2023-04-06T07:30:49;8.00;97.00
6256;DHT22;3161;48.794;9.784;2023-04-06T07:33:16;9.40;94.40
6256;DHT22;3161;48.794;9.784;2023-04-06T07:35:44;10.90;90.40
6256;DHT22;3161;48.794;9.784;2023-04-06T07:38:12;12.40;78.80
6256;DHT22;3161;48.794;9.784;2023-04-06T07:40:39;13.70;74.60
6256;DHT22;3161;48.794;9.784;2023-04-06T07:43:07;14.50;66.10
6256;DHT22;3161;48.794;9.784;2023-04-06T07:45:34;15.30;62.30
6256;DHT22;3161;48.794;9.784;2023-04-06T07:48:02;15.70;58.50
6256;DHT22;3161;48.794;9.784;2023-04-06T07:50:30;16.30;57.40
6256;DHT22;3161;48.794;9.784;2023-04-06T07:52:57;16.70;54.10
6256;DHT22;3161;48.794;9.784;2023-04-06T07:55:26;17.10;52.00
6256;DHT22;3161;48.794;9.784;2023-04-06T07:57:54;17.50;48.80
6256;DHT22;3161;48.794;9.784;2023-04-06T08:00:22;17.60;50.60
6256;DHT22;3161;48.794;9.784;2023-04-06T08:02:50;17.70;50.40
6256;DHT22;3161;48.794;9.784;2023-04-06T08:05:17;18.00;47.10
6256;DHT22;3161;48.794;9.784;2023-04-06T08:07:45;18.30;48.00
6256;DHT22;3161;48.794;9.784;2023-04-06T08:10:13;18.50;45.70
6256;DHT22;3161;48.794;9.784;2023-04-06T08:12:40;18.80;45.40
6256;DHT22;3161;48.794;9.784;2023-04-06T08:15:08;19.00;45.20
6256;DHT22;3161;48.794;9.784;2023-04-06T08:17:36;18.80;46.80
6256;DHT22;3161;48.794;9.784;2023-04-06T08:20:04;18.70;44.40
6256;DHT22;3161;48.794;9.784;2023-04-06T08:22:32;18.70;45.60
6256;DHT22;3161;48.794;9.784;2023-04-06T08:25:00;18.90;46.40
6256;DHT22;3161;48.794;9.784;2023-04-06T08:27:27;18.90;44.30
6256;DHT22;3161;48.794;9.784;2023-04-06T08:29:55;19.00;42.20
6256;DHT22;3161;48.794;9.784;2023-04-06T08:32:22;19.10;43.60
6256;DHT22;3161;48.794;9.784;2023-04-06T08:34:55;19.00;44.10
6256;DHT22;3161;48.794;9.784;2023-04-06T08:37:23;18.90;43.20
6256;DHT22;3161;48.794;9.784;2023-04-06T08:39:50;19.00;41.00
6256;DHT22;3161;48.794;9.784;2023-04-06T08:42:21;19.00;40.50
6256;DHT22;3161;48.794;9.784;2023-04-06T08:44:50;19.00;40.60
6256;DHT22;3161;48.794;9.784;2023-04-06T08:47:19;19.10;41.70
6256;DHT22;3161;48.794;9.784;2023-04-06T08:49:47;19.10;41.40
6256;DHT22;3161;48.794;9.784;2023-04-06T08:52:17;19.00;43.90
6256;DHT22;3161;48.794;9.784;2023-04-06T08:54:45;18.90;41.30
6256;DHT22;3161;48.794;9.784;2023-04-06T08:57:13;18.90;42.70
6256;DHT22;3161;48.794;9.784;2023-04-06T08:59:42;18.90;41.20
6256;DHT22;3161;48.794;9.784;2023-04-06T09:02:14;18.90;39.90
6256;DHT22;3161;48.794;9.784;2023-04-06T09:04:41;18.90;44.40
6256;DHT22;3161;48.794;9.784;2023-04-06T09:07:08;18.90;43.10
6256;DHT22;3161;48.794;9.784;2023-04-06T09:09:36;18.90;43.30
6256;DHT22;3161;48.794;9.784;2023-04-06T09:12:05;18.90;44.70
6256;DHT22;3161;48.794;9.784;2023-04-06T09:14:38;18.90;41.50
6256;DHT22;3161;48.794;9.784;2023-04-06T09:17:06;19.00;42.30
6256;DHT22;3161;48.794;9.784;2023-04-06T09:19:44;19.00;40.70
6256;DHT22;3161;48.794;9.784;2023-04-06T09:22:04;18.90;40.30
6256;DHT22;3161;48.794;9.784;2023-04-06T09:24:47;18.80;42.50
6256;DHT22;3161;48.794;9.784;2023-04-06T09:27:16;18.70;41.20
6256;DHT22;3161;48.794;9.784;2023-04-06T09:29:44;18.30;42.10
6256;DHT22;3161;48.794;9.784;2023-04-06T09:32:12;18.00;40.40
6256;DHT22;3161;48.794;9.784;2023-04-06T09:34:41;17.80;40.50
6256;DHT22;3161;48.794;9.784;2023-04-06T09:37:18;17.60;43.60
6256;DHT22;3161;48.794;9.784;2023-04-06T09:39:42;17.30;40.20
6256;DHT22;3161;48.794;9.784;2023-04-06T09:42:09;17.20;39.20
6256;DHT22;3161;48.794;9.784;2023-04-06T09:44:37;17.00;42.80
6256;DHT22;3161;48.794;9.784;2023-04-06T09:47:06;17.10;43.70
6256;DHT22;3161;48.794;9.784;2023-04-06T09:49:34;17.20;42.70
6256;DHT22;3161;48.794;9.784;2023-04-06T09:52:03;17.00;42.40
6256;DHT22;3161;48.794;9.784;2023-04-06T09:54:35;16.90;41.00
6256;DHT22;3161;48.794;9.784;2023-04-06T10:02:34;16.90;45.60
6256;DHT22;3161;48.794;9.784;2023-04-06T10:07:56;17.00;44.50
6256;DHT22;3161;48.794;9.784;2023-04-06T10:10:24;17.00;41.10
6256;DHT22;3161;48.794;9.784;2023-04-06T10:12:53;17.10;43.10
6256;DHT22;3161;48.794;9.784;2023-04-06T10:15:22;17.10;40.70
6256;DHT22;3161;48.794;9.784;2023-04-06T10:17:51;17.00;41.60
6256;DHT22;3161;48.794;9.784;2023-04-06T10:25:59;16.90;41.20
6256;DHT22;3161;48.794;9.784;2023-04-06T10:28:31;16.90;40.60
6256;DHT22;3161;48.794;9.784;2023-04-06T10:31:01;16.90;43.90
6256;DHT22;3161;48.794;9.784;2023-04-06T10:33:29;17.00;42.40
6256;DHT22;3161;48.794;9.784;2023-04-06T10:35:57;17.00;42.70
6256;DHT22;3161;48.794;9.784;2023-04-06T10:38:35;17.10;41.10
6256;DHT22;3161;48.794;9.784;2023-04-06T10:41:08;17.20;42.50
6256;DHT22;3161;48.794;9.784;2023-04-06T10:43:38;17.30;41.70
6256;DHT22;3161;48.794;9.784;2023-04-06T10:46:09;17.30;40.80
6256;DHT22;3161;48.794;9.784;2023-04-06T10:48:43;17.40;39.40
6256;DHT22;3161;48.794;9.784;2023-04-06T10:51:14;17.40;40.70
6256;DHT22;3161;48.794;9.784;2023-04-06T10:53:47;17.40;39.60
6256;DHT22;3161;48.794;9.784;2023-04-06T10:56:16;17.40;40.20
6256;DHT22;3161;48.794;9.784;2023-04-06T10:58:52;17.50;41.40
6256;DHT22;3161;48.794;9.784;2023-04-06T11:01:22;17.60;39.40
6256;DHT22;3161;48.794;9.784;2023-04-06T11:03:52;17.50;38.30
6256;DHT22;3161;48.794;9.784;2023-04-06T11:06:26;17.50;40.50
6256;DHT22;3161;48.794;9.784;2023-04-06T11:08:51;17.40;41.50
6256;DHT22;3161;48.794;9.784;2023-04-06T11:11:21;17.40;37.50
6256;DHT22;3161;48.794;9.784;2023-04-06T11:13:53;17.40;40.50
6256;DHT22;3161;48.794;9.784;2023-04-06T11:16:25;17.30;36.10
6256;DHT22;3161;48.794;9.784;2023-04-06T11:19:01;17.00;36.30
6256;DHT22;3161;48.794;9.784;2023-04-06T11:21:45;16.70;36.10
6256;DHT22;3161;48.794;9.784;2023-04-06T11:24:18;16.40;35.90
6256;DHT22;3161;48.794;9.784;2023-04-06T11:26:48;16.30;38.10
6256;DHT22;3161;48.794;9.784;2023-04-06T11:29:19;16.30;37.50
6256;DHT22;3161;48.794;9.784;2023-04-06T11:31:51;16.50;39.40
6256;DHT22;3161;48.794;9.784;2023-04-06T11:34:21;16.80;37.70
6256;DHT22;3161;48.794;9.784;2023-04-06T11:37:01;17.10;38.80
6256;DHT22;3161;48.794;9.784;2023-04-06T11:39:27;17.40;37.40
6256;DHT22;3161;48.794;9.784;2023-04-06T11:42:00;17.90;35.60
6256;DHT22;3161;48.794;9.784;2023-04-06T11:44:45;18.40;37.40
6256;DHT22;3161;48.794;9.784;2023-04-06T11:47:13;19.00;38.70
6256;DHT22;3161;48.794;9.784;2023-04-06T11:49:42;19.50;36.70
6256;DHT22;3161;48.794;9.784;2023-04-06T11:52:20;20.10;35.90
6256;DHT22;3161;48.794;9.784;2023-04-06T11:54:48;20.50;34.10
6256;DHT22;3161;48.794;9.784;2023-04-06T11:57:17;20.80;34.70
6256;DHT22;3161;48.794;9.784;2023-04-06T11:59:45;21.10;34.30
6256;DHT22;3161;48.794;9.784;2023-04-06T12:02:13;21.40;33.30
6256;DHT22;3161;48.794;9.784;2023-04-06T12:04:41;21.40;33.00
6256;DHT22;3161;48.794;9.784;2023-04-06T12:07:09;21.30;33.80
6256;DHT22;3161;48.794;9.784;2023-04-06T12:09:36;21.30;33.60
6256;DHT22;3161;48.794;9.784;2023-04-06T12:12:05;21.60;32.60
6256;DHT22;3161;48.794;9.784;2023-04-06T12:14:33;21.90;32.80
6256;DHT22;3161;48.794;9.784;2023-04-06T12:17:00;22.20;36.80
6256;DHT22;3161;48.794;9.784;2023-04-06T12:19:28;22.60;32.10
6256;DHT22;3161;48.794;9.784;2023-04-06T12:21:57;22.90;32.80
6256;DHT22;3161;48.794;9.784;2023-04-06T12:24:24;23.20;32.20
6256;DHT22;3161;48.794;9.784;2023-04-06T12:26:53;23.50;29.80
6256;DHT22;3161;48.794;9.784;2023-04-06T12:29:21;24.00;32.20
6256;DHT22;3161;48.794;9.784;2023-04-06T12:31:48;24.60;30.90
6256;DHT22;3161;48.794;9.784;2023-04-06T12:34:16;25.10;29.80
6256;DHT22;3161;48.794;9.784;2023-04-06T12:36:43;25.70;28.30
6256;DHT22;3161;48.794;9.784;2023-04-06T12:39:11;26.10;28.70
6256;DHT22;3161;48.794;9.784;2023-04-06T12:41:39;26.40;27.80
6256;DHT22;3161;48.794;9.784;2023-04-06T12:44:08;27.00;28.30
6256;DHT22;3161;48.794;9.784;2023-04-06T12:46:35;27.90;25.50
6256;DHT22;3161;48.794;9.784;2023-04-06T12:49:03;28.80;25.80
6256;DHT22;3161;48.794;9.784;2023-04-06T12:51:31;29.80;23.90
6256;DHT22;3161;48.794;9.784;2023-04-06T12:53:59;30.30;24.50
6256;DHT22;3161;48.794;9.784;2023-04-06T12:56:27;30.90;24.60
6256;DHT22;3161;48.794;9.784;2023-04-06T12:58:55;31.10;24.60
6256;DHT22;3161;48.794;9.784;2023-04-06T13:01:22;31.60;25.50
6256;DHT22;3161;48.794;9.784;2023-04-06T13:03:51;31.50;22.30
6256;DHT22;3161;48.794;9.784;2023-04-06T13:06:19;31.80;23.20
6256;DHT22;3161;48.794;9.784;2023-04-06T13:08:46;32.10;22.50
6256;DHT22;3161;48.794;9.784;2023-04-06T13:11:16;31.80;23.40
6256;DHT22;3161;48.794;9.784;2023-04-06T13:13:45;31.90;23.20
6256;DHT22;3161;48.794;9.784;2023-04-06T13:16:13;31.70;20.70
6256;DHT22;3161;48.794;9.784;2023-04-06T13:18:41;31.00;21.40
6256;DHT22;3161;48.794;9.784;2023-04-06T13:21:09;30.40;22.80
6256;DHT22;3161;48.794;9.784;2023-04-06T13:23:39;30.70;22.80
6256;DHT22;3161;48.794;9.784;2023-04-06T13:26:07;31.30;22.50
6256;DHT22;3161;48.794;9.784;2023-04-06T13:28:36;31.70;20.50
6256;DHT22;3161;48.794;9.784;2023-04-06T13:31:05;31.50;21.20
6256;DHT22;3161;48.794;9.784;2023-04-06T13:33:33;31.50;21.40
6256;DHT22;3161;48.794;9.784;2023-04-06T13:36:01;31.50;21.40
6256;DHT22;3161;48.794;9.784;2023-04-06T13:38:30;31.50;21.50
6256;DHT22;3161;48.794;9.784;2023-04-06T13:40:58;31.20;21.70
6256;DHT22;3161;48.794;9.784;2023-04-06T13:43:25;31.20;21.90
6256;DHT22;3161;48.794;9.784;2023-04-06T13:45:54;31.20;21.80
6256;DHT22;3161;48.794;9.784;2023-04-06T13:48:24;31.30;21.50
6256;DHT22;3161;48.794;9.784;2023-04-06T13:51:13;31.60;21.10
6256;DHT22;3161;48.794;9.784;2023-04-06T13:53:38;32.00;20.70
6256;DHT22;3161;48.794;9.784;2023-04-06T13:56:06;32.60;20.60
6256;DHT22;3161;48.794;9.784;2023-04-06T13:58:34;33.00;20.90
6256;DHT22;3161;48.794;9.784;2023-04-06T14:01:04;33.40;20.40
6256;DHT22;3161;48.794;9.784;2023-04-06T14:03:33;33.80;20.00
6256;DHT22;3161;48.794;9.784;2023-04-06T14:06:01;34.60;18.90
6256;DHT22;3161;48.794;9.784;2023-04-06T14:08:28;34.90;17.10
6256;DHT22;3161;48.794;9.784;2023-04-06T14:10:56;34.90;18.90
6256;DHT22;3161;48.794;9.784;2023-04-06T14:13:24;35.60;17.50
6256;DHT22;3161;48.794;9.784;2023-04-06T14:15:55;36.50;17.80
6256;DHT22;3161;48.794;9.784;2023-04-06T14:18:23;36.40;16.50
6256;DHT22;3161;48.794;9.784;2023-04-06T14:20:54;36.20;17.20
6256;DHT22;3161;48.794;9.784;2023-04-06T14:23:23;36.20;17.10
6256;DHT22;3161;48.794;9.784;2023-04-06T14:26:02;36.20;17.30
6256;DHT22;3161;48.794;9.784;2023-04-06T14:28:32;36.30;17.40
6256;DHT22;3161;48.794;9.784;2023-04-06T14:31:00;36.50;16.40
6256;DHT22;3161;48.794;9.784;2023-04-06T14:33:30;36.80;15.90
6256;DHT22;3161;48.794;9.784;2023-04-06T14:35:58;36.90;16.80
6256;DHT22;3161;48.794;9.784;2023-04-06T14:38:26;36.80;15.20
6256;DHT22;3161;48.794;9.784;2023-04-06T14:40:53;35.10;16.70
6256;DHT22;3161;48.794;9.784;2023-04-06T14:43:22;33.50;16.70
6256;DHT22;3161;48.794;9.784;2023-04-06T14:45:50;31.40;17.30
6256;DHT22;3161;48.794;9.784;2023-04-06T14:48:17;29.70;18.80
6256;DHT22;3161;48.794;9.784;2023-04-06T14:50:55;28.70;19.50
6256;DHT22;3161;48.794;9.784;2023-04-06T14:53:23;28.10;19.80
6256;DHT22;3161;48.794;9.784;2023-04-06T14:55:51;27.10;20.80
6256;DHT22;3161;48.794;9.784;2023-04-06T14:58:20;26.10;20.70
6256;DHT22;3161;48.794;9.784;2023-04-06T15:00:48;25.30;22.30
6256;DHT22;3161;48.794;9.784;2023-04-06T15:03:16;24.70;23.00
6256;DHT22;3161;48.794;9.784;2023-04-06T15:05:44;24.00;22.80
6256;DHT22;3161;48.794;9.784;2023-04-06T15:08:11;23.30;23.00
6256;DHT22;3161;48.794;9.784;2023-04-06T15:10:41;22.40;23.10
6256;DHT22;3161;48.794;9.784;2023-04-06T15:13:08;21.30;21.90
6256;DHT22;3161;48.794;9.784;2023-04-06T15:15:36;20.40;23.30
6256;DHT22;3161;48.794;9.784;2023-04-06T15:18:04;19.70;23.80
6256;DHT22;3161;48.794;9.784;2023-04-06T15:20:33;19.20;25.40
6256;DHT22;3161;48.794;9.784;2023-04-06T15:23:04;18.90;26.90
6256;DHT22;3161;48.794;9.784;2023-04-06T15:25:32;18.60;26.00
6256;DHT22;3161;48.794;9.784;2023-04-06T15:27:59;18.30;27.00
6256;DHT22;3161;48.794;9.784;2023-04-06T15:30:27;18.10;27.10
6256;DHT22;3161;48.794;9.784;2023-04-06T15:32:59;17.90;27.60
6256;DHT22;3161;48.794;9.784;2023-04-06T15:35:27;17.80;27.90
6256;DHT22;3161;48.794;9.784;2023-04-06T15:37:56;17.80;28.20
6256;DHT22;3161;48.794;9.784;2023-04-06T15:40:24;17.80;27.90
6256;DHT22;3161;48.794;9.784;2023-04-06T15:42:52;17.70;26.20
6256;DHT22;3161;48.794;9.784;2023-04-06T15:45:20;17.50;26.00
6256;DHT22;3161;48.794;9.784;2023-04-06T15:47:47;17.30;25.90
6256;DHT22;3161;48.794;9.784;2023-04-06T15:50:15;17.10;28.30
6256;DHT22;3161;48.794;9.784;2023-04-06T15:52:44;17.10;28.30
6256;DHT22;3161;48.794;9.784;2023-04-06T15:55:11;17.10;28.40
6256;DHT22;3161;48.794;9.784;2023-04-06T15:57:39;18.00;29.50
6256;DHT22;3161;48.794;9.784;2023-04-06T16:00:08;17.10;29.30
6256;DHT22;3161;48.794;9.784;2023-04-06T16:02:36;17.00;27.60
6256;DHT22;3161;48.794;9.784;2023-04-06T16:05:04;17.00;28.20
6256;DHT22;3161;48.794;9.784;2023-04-06T16:07:32;17.00;28.40
6256;DHT22;3161;48.794;9.784;2023-04-06T16:10:01;16.90;28.80
6256;DHT22;3161;48.794;9.784;2023-04-06T16:12:30;16.80;29.60
6256;DHT22;3161;48.794;9.784;2023-04-06T16:14:59;16.80;29.20
6256;DHT22;3161;48.794;9.784;2023-04-06T16:17:27;16.70;28.50
6256;DHT22;3161;48.794;9.784;2023-04-06T16:19:54;16.60;28.90
6256;DHT22;3161;48.794;9.784;2023-04-06T16:22:22;16.60;28.50
6256;DHT22;3161;48.794;9.784;2023-04-06T16:24:50;16.50;27.70
6256;DHT22;3161;48.794;9.784;2023-04-06T16:27:17;16.40;28.10
6256;DHT22;3161;48.794;9.784;2023-04-06T16:29:45;16.30;28.40
6256;DHT22;3161;48.794;9.784;2023-04-06T16:32:12;16.30;30.00